Time;durP1;ratioP1;P1;durP2;ratioP2;P2;SDS_P1;SDS_P2;PMS_P1;PMS_P2;Temp;Humidity;BMP_temperature;BMP_pressure;BME280_temperature;BME280_humidity;BME280_pressure;Samples;Min_cycle;Max_cycle;Signal;HPM_P1;HPM_P2
2021/10/04 00:00:56;;;;;;;2.50;0.52;;;13.60;12.60;;;;;;5054640;28;20071;-77
2021/10/04 00:03:22;;;;;;;1.90;0.47;;;13.60;14.90;;;;;;5036853;28;20047;-77
2021/10/04 00:05:48;;;;;;;0.90;0.75;;;13.60;3.00;;;;;;5054707;28;20033;-77
2021/10/04 00:08:14;;;;;;;1.83;0.38;;;13.50;21.80;;;;;;5054934;28;20044;-77
2021/10/04 00:10:40;;;;;;;0.65;0.38;;;13.50;5.70;;;;;;5054381;28;20492;-77
2021/10/04 00:13:06;;;;;;;2.47;0.30;;;13.50;33.50;;;;;;5036635;28;20055;-77
2021/10/04 00:15:32;;;;;;;0.30;0.30;;;13.40;5.40;;;;;;5054150;28;20036;-77
2021/10/04 00:18:01;;;;;;;1.50;0.57;;;13.30;33.00;;;;;;5054893;28;20048;-77
2021/10/04 00:20:27;;;;;;;0.93;0.40;;;13.30;20.30;;;;;;5054686;28;20025;-77
2021/10/04 00:22:55;;;;;;;2.60;0.40;;;13.30;83.30;;;;;;5054253;28;20063;-77
2021/10/04 00:25:21;;;;;;;1.10;0.50;;;13.20;21.90;;;;;;5054218;28;20041;-77
2021/10/04 00:27:47;;;;;;;1.02;0.40;;;13.10;21.40;;;;;;5036292;28;20066;-77
2021/10/04 00:30:15;;;;;;;0.88;0.43;;;13.10;76.20;;;;;;5054133;28;20086;-77
2021/10/04 00:32:46;;;;;;;0.63;0.40;;;13.10;52.30;;;;;;5037244;28;20044;-77
2021/10/04 00:35:14;;;;;;;0.75;0.40;;;13.20;80.10;;;;;;5036584;28;20052;-77
2021/10/04 00:37:43;;;;;;;2.50;0.50;;;13.20;69.40;;;;;;5032646;28;20053;-77
2021/10/04 00:40:15;;;;;;;1.55;0.40;;;13.20;47.20;;;;;;5034975;28;20120;-77
2021/10/04 00:42:41;;;;;;;1.92;0.40;;;13.30;62.70;;;;;;5034994;28;20037;-77
2021/10/04 00:45:10;;;;;;;0.57;0.30;;;13.30;43.30;;;;;;5033243;28;20029;-77
2021/10/04 00:47:38;;;;;;;2.05;0.30;;;13.20;9.40;;;;;;5034251;28;20042;-77
2021/10/04 00:50:07;;;;;;;3.45;0.50;;;13.20;12.00;;;;;;5036536;28;20042;-77
2021/10/04 00:52:36;;;;;;;5.05;0.40;;;13.30;29.90;;;;;;5038578;28;20041;-77
2021/10/04 00:55:08;;;;;;;0.77;0.35;;;13.40;22.60;;;;;;5038641;28;20411;-77
2021/10/04 00:57:36;;;;;;;0.73;0.38;;;13.30;17.20;;;;;;5038378;28;20033;-77
2021/10/04 01:00:07;;;;;;;1.80;0.60;;;13.30;11.60;;;;;;5038544;28;20032;-77
2021/10/04 01:03:03;;;;;;;0.80;0.30;;;13.30;46.50;;;;;;5038233;28;20049;-77
2021/10/04 01:05:54;;;;;;;0.55;0.40;;;13.20;33.20;;;;;;5036992;28;20400;-77
2021/10/04 01:09:01;;;;;;;;;;;13.20;67.00;;;;;;5037213;28;20033;-77
2021/10/04 01:15:24;;;;;;;;;;;;;;;;;;;;;
2021/10/04 01:18:35;;;;;;;0.80;0.30;;;13.20;95.20;;;;;;5035557;28;20028;-77
2021/10/04 01:21:33;;;;;;;;;;;;;;;;;;;;;
2021/10/04 01:24:19;;;;;;;;;;;;;;;;;;;;;
2021/10/04 01:27:39;;;;;;;0.45;0.30;;;13.10;83.60;;;;;;5037887;28;20067;-77
2021/10/04 01:30:07;;;;;;;2.20;0.30;;;13.00;99.90;;;;;;4998491;28;20041;-77
2021/10/04 01:32:35;;;;;;;0.45;0.30;;;13.00;87.90;;;;;;5036318;28;20049;-77
2021/10/04 01:35:01;;;;;;;1.95;0.40;;;12.90;99.90;;;;;;5038221;28;20037;-77
2021/10/04 01:37:30;;;;;;;0.20;0.20;;;12.80;99.90;;;;;;5037886;28;20065;-77
2021/10/04 01:40:31;;;;;;;1.52;0.30;;;12.60;99.90;;;;;;5036093;28;20033;-77
2021/10/04 01:43:18;;;;;;;0.82;0.43;;;12.50;99.90;;;;;;5036069;28;20370;-78
2021/10/04 01:46:10;;;;;;;0.95;0.40;;;12.60;99.90;;;;;;5037664;28;20045;-77
2021/10/04 01:48:42;;;;;;;1.00;0.63;;;12.60;99.90;;;;;;5036103;28;20037;-77
2021/10/04 01:51:26;;;;;;;1.58;0.20;;;12.60;99.90;;;;;;5037343;28;20084;-77
2021/10/04 01:53:56;;;;;;;0.90;0.63;;;12.50;99.90;;;;;;5035779;28;20381;-77
2021/10/04 01:56:42;;;;;;;3.55;0.30;;;12.50;99.90;;;;;;5036009;28;20042;-77
2021/10/04 02:00:16;;;;;;;;;;;;;;;;;;;;;
2021/10/04 02:05:54;;;;;;;;;;;;;;;;;;;;;
2021/10/04 02:08:44;;;;;;;0.67;0.40;;;12.60;99.90;;;;;;5037072;28;20044;-77
2021/10/04 02:11:50;;;;;;;0.45;0.28;;;12.70;99.90;;;;;;5035170;28;20069;-77
2021/10/04 02:14:27;;;;;;;2.30;0.20;;;12.70;99.90;;;;;;5012720;28;20053;-77
2021/10/04 02:17:03;;;;;;;0.63;0.22;;;12.70;80.90;;;;;;5037038;28;20087;-77
2021/10/04 02:19:44;;;;;;;1.33;0.30;;;12.80;99.90;;;;;;5037150;28;20154;-77
2021/10/04 02:22:12;;;;;;;0.30;0.30;;;12.80;99.90;;;;;;5035782;28;20029;-77
2021/10/04 02:24:42;;;;;;;0.30;0.30;;;12.80;99.90;;;;;;5034135;28;20045;-77
2021/10/04 02:27:23;;;;;;;0.70;0.30;;;12.80;89.40;;;;;;5035417;28;20033;-77
2021/10/04 02:29:57;;;;;;;0.52;0.30;;;12.80;99.90;;;;;;5034806;28;20562;-77
2021/10/04 02:32:28;;;;;;;0.98;0.30;;;12.80;99.90;;;;;;5034537;28;20046;-77
2021/10/04 02:35:02;;;;;;;0.20;0.20;;;12.80;92.40;;;;;;5036742;28;20049;-77
2021/10/04 02:37:51;;;;;;;0.50;0.30;;;12.80;71.30;;;;;;5038363;28;20071;-77
2021/10/04 02:40:28;;;;;;;2.17;0.32;;;12.80;96.40;;;;;;5038646;28;20080;-77
2021/10/04 02:42:55;;;;;;;3.10;0.40;;;12.80;72.60;;;;;;5038101;28;20048;-77
2021/10/04 02:45:28;;;;;;;3.85;0.30;;;12.80;69.20;;;;;;5037769;28;20029;-77
2021/10/04 02:47:59;;;;;;;0.30;0.25;;;12.80;71.80;;;;;;5056108;28;20087;-77
2021/10/04 02:50:30;;;;;;;1.00;0.40;;;12.80;99.90;;;;;;5056114;28;20124;-77
2021/10/04 02:52:58;;;;;;;0.73;0.35;;;12.70;71.40;;;;;;5037816;28;20048;-77
2021/10/04 02:55:36;;;;;;;1.88;0.22;;;12.70;58.20;;;;;;5037858;28;20033;-77
2021/10/04 02:58:02;;;;;;;2.08;0.40;;;12.80;73.50;;;;;;5037810;28;20044;-77
2021/10/04 03:00:32;;;;;;;0.40;0.25;;;12.80;52.80;;;;;;5037893;28;20094;-77
2021/10/04 03:03:00;;;;;;;2.42;0.45;;;12.80;96.50;;;;;;5056485;28;20072;-77
2021/10/04 03:05:29;;;;;;;0.80;0.30;;;12.80;90.10;;;;;;5037914;28;20163;-77
2021/10/04 03:07:57;;;;;;;1.25;0.30;;;12.80;52.40;;;;;;5055573;28;20443;-77
2021/10/04 03:10:28;;;;;;;0.57;0.20;;;12.80;37.40;;;;;;5038045;28;20037;-77
2021/10/04 03:12:54;;;;;;;0.20;0.20;;;12.80;40.40;;;;;;5036449;28;20041;-77
2021/10/04 03:15:24;;;;;;;1.13;0.30;;;12.80;53.10;;;;;;5055507;28;20033;-77
2021/10/04 03:17:50;;;;;;;0.68;0.30;;;12.80;41.70;;;;;;5056108;28;20036;-77
2021/10/04 03:20:18;;;;;;;0.57;0.30;;;12.80;98.30;;;;;;5055250;28;20033;-77
2021/10/04 03:22:44;;;;;;;1.30;0.32;;;12.80;85.30;;;;;;5055853;28;20102;-77
2021/10/04 03:25:15;;;;;;;0.47;0.20;;;12.80;75.10;;;;;;5055457;28;20037;-77
2021/10/04 03:27:48;;;;;;;0.38;0.38;;;12.70;51.40;;;;;;5055813;28;20048;-77
2021/10/04 03:30:14;;;;;;;0.68;0.30;;;12.60;52.80;;;;;;5055419;28;20037;-77
2021/10/04 03:32:41;;;;;;;2.25;0.30;;;12.70;52.70;;;;;;5037179;28;20132;-77
2021/10/04 03:35:08;;;;;;;0.85;0.30;;;12.70;41.40;;;;;;5037304;28;20072;-77
2021/10/04 03:37:35;;;;;;;0.80;0.22;;;12.70;92.80;;;;;;5055596;28;20033;-77
2021/10/04 03:40:01;;;;;;;0.20;0.20;;;12.70;78.60;;;;;;5054721;28;20118;-77
2021/10/04 03:42:27;;;;;;;0.47;0.20;;;12.70;34.00;;;;;;5055143;28;20036;-77
2021/10/04 03:44:53;;;;;;;1.25;0.20;;;12.60;91.10;;;;;;5037900;28;20044;-77
2021/10/04 03:47:21;;;;;;;0.88;0.30;;;12.70;51.40;;;;;;5055013;28;20036;-77
2021/10/04 03:49:52;;;;;;;0.20;0.20;;;12.70;73.80;;;;;;5037122;28;20059;-77
2021/10/04 03:52:21;;;;;;;1.88;0.40;;;12.70;36.00;;;;;;5037569;28;20061;-77
2021/10/04 03:54:47;;;;;;;0.28;0.20;;;12.80;26.70;;;;;;5036977;28;20064;-77
2021/10/04 03:57:16;;;;;;;0.20;0.20;;;12.80;24.10;;;;;;5055549;28;20514;-76
2021/10/04 03:59:44;;;;;;;1.00;0.20;;;12.80;54.90;;;;;;5054824;28;20036;-77
2021/10/04 04:02:16;;;;;;;1.00;0.40;;;12.80;18.60;;;;;;5054614;28;20116;-76
2021/10/04 04:04:42;;;;;;;0.77;0.20;;;12.90;29.80;;;;;;5059566;28;20036;-76
2021/10/04 04:07:10;;;;;;;0.20;0.20;;;12.90;50.80;;;;;;5044921;28;20123;-74
2021/10/04 04:10:07;;;;;;;0.60;0.20;;;12.90;27.90;;;;;;5064818;28;20064;-75
2021/10/04 04:23:29;;;;;;;0.70;0.20;;;12.80;30.10;;;;;;4953347;28;20102;-75
2021/10/04 04:25:55;;;;;;;0.50;0.28;;;12.70;38.10;;;;;;4950935;29;20035;-75
2021/10/04 04:28:22;;;;;;;0.95;0.20;;;12.80;52.30;;;;;;4952051;29;20044;-75
2021/10/04 04:30:49;;;;;;;0.65;0.30;;;12.80;63.00;;;;;;5027895;28;20312;-77
2021/10/04 04:33:14;;;;;;;0.38;0.30;;;12.90;59.30;;;;;;5047815;28;20049;-73
2021/10/04 04:35:42;;;;;;;0.52;0.30;;;12.80;58.10;;;;;;5023073;28;20068;-75
2021/10/04 04:38:08;;;;;;;2.53;0.30;;;12.80;42.90;;;;;;5033588;28;20061;-72
2021/10/04 04:40:34;;;;;;;2.53;0.30;;;12.70;81.50;;;;;;5034131;28;20037;-72
2021/10/04 04:42:59;;;;;;;0.50;0.30;;;12.70;61.30;;;;;;5032734;28;20037;-72
2021/10/04 04:45:25;;;;;;;0.55;0.50;;;12.70;63.50;;;;;;5032172;28;20041;-72
2021/10/04 04:47:51;;;;;;;0.47;0.20;;;12.70;44.90;;;;;;5032377;28;20044;-72
2021/10/04 04:50:18;;;;;;;0.55;0.28;;;12.70;50.00;;;;;;5033119;28;20044;-72
2021/10/04 04:52:44;;;;;;;0.50;0.38;;;12.70;68.10;;;;;;5033388;28;20041;-72
2021/10/04 04:55:10;;;;;;;2.03;0.40;;;12.70;36.80;;;;;;5033735;28;20515;-72
2021/10/04 04:57:37;;;;;;;0.98;0.30;;;12.70;87.20;;;;;;5034065;28;20034;-72
2021/10/04 05:00:07;;;;;;;0.40;0.22;;;12.70;90.40;;;;;;5034156;28;20072;-72
2021/10/04 05:02:36;;;;;;;3.05;0.40;;;12.70;61.20;;;;;;5034034;28;20084;-72
2021/10/04 05:05:07;;;;;;;0.80;0.47;;;12.70;58.50;;;;;;5033813;28;20067;-72
2021/10/04 05:07:33;;;;;;;0.63;0.50;;;12.70;36.50;;;;;;5034543;28;20037;-72
2021/10/04 05:09:59;;;;;;;1.58;0.45;;;12.70;43.30;;;;;;5034224;28;20124;-72
2021/10/04 05:12:25;;;;;;;0.98;0.40;;;12.70;30.80;;;;;;5033984;28;20041;-72
2021/10/04 05:14:51;;;;;;;0.63;0.28;;;12.80;56.30;;;;;;5034119;28;20048;-72
2021/10/04 05:17:17;;;;;;;1.10;0.40;;;12.80;36.00;;;;;;5034068;28;20048;-72
2021/10/04 05:19:43;;;;;;;1.85;0.32;;;12.80;73.00;;;;;;5034114;28;20045;-72
2021/10/04 05:22:09;;;;;;;2.67;0.30;;;12.80;67.30;;;;;;5034055;28;20048;-72
2021/10/04 05:24:35;;;;;;;0.32;0.30;;;12.80;46.20;;;;;;5033747;28;20045;-72
2021/10/04 05:27:01;;;;;;;1.50;0.47;;;12.70;47.30;;;;;;5033743;28;20034;-72
2021/10/04 05:29:27;;;;;;;0.88;0.28;;;12.70;89.50;;;;;;5033909;28;20045;-72
2021/10/04 05:31:54;;;;;;;3.38;0.47;;;12.70;43.30;;;;;;5033777;28;20068;-72
2021/10/04 05:34:20;;;;;;;0.77;0.40;;;12.70;28.20;;;;;;5033583;28;20052;-72
2021/10/04 05:36:45;;;;;;;1.75;0.60;;;12.70;45.60;;;;;;5036564;28;20053;-72
2021/10/04 05:39:12;;;;;;;1.25;0.30;;;12.70;27.40;;;;;;5038152;28;20053;-72
2021/10/04 05:41:38;;;;;;;2.53;0.43;;;12.70;37.20;;;;;;5037855;28;20499;-72
2021/10/04 05:44:04;;;;;;;1.90;0.50;;;12.70;41.60;;;;;;5037524;28;20041;-72
2021/10/04 05:46:30;;;;;;;2.72;0.43;;;12.70;57.20;;;;;;5037716;28;20037;-72
2021/10/04 05:48:56;;;;;;;0.65;0.30;;;12.70;43.70;;;;;;5037860;28;20115;-72
2021/10/04 05:51:22;;;;;;;1.73;0.38;;;12.70;58.40;;;;;;5037685;28;20106;-72
2021/10/04 05:53:48;;;;;;;0.85;0.30;;;12.70;31.50;;;;;;5037450;28;20075;-72
2021/10/04 05:56:13;;;;;;;0.20;0.20;;;12.70;47.40;;;;;;5037623;28;20049;-72
2021/10/04 05:58:39;;;;;;;0.43;0.20;;;12.70;91.50;;;;;;5037254;28;20057;-72
2021/10/04 06:01:05;;;;;;;0.70;0.30;;;12.80;89.00;;;;;;5037321;28;20485;-72
2021/10/04 06:03:31;;;;;;;0.65;0.60;;;12.80;60.40;;;;;;5037192;28;20048;-72
2021/10/04 06:05:57;;;;;;;0.40;0.20;;;12.80;42.40;;;;;;5037103;28;20041;-72
2021/10/04 06:08:23;;;;;;;0.82;0.40;;;12.80;59.80;;;;;;5037417;28;20037;-72
2021/10/04 06:10:49;;;;;;;1.85;0.35;;;12.70;18.20;;;;;;5037043;28;20500;-72
2021/10/04 06:13:15;;;;;;;1.10;0.30;;;12.70;73.40;;;;;;5037208;28;20516;-72
2021/10/04 06:15:42;;;;;;;2.53;0.30;;;12.80;29.90;;;;;;5037197;28;20040;-71
2021/10/04 06:18:11;;;;;;;0.47;0.40;;;12.80;37.10;;;;;;5037545;28;20041;-72
2021/10/04 06:20:41;;;;;;;0.65;0.20;;;12.80;22.20;;;;;;5036995;28;20034;-72
2021/10/04 06:23:08;;;;;;;1.40;0.30;;;12.90;18.20;;;;;;5036822;28;20045;-72
2021/10/04 06:25:34;;;;;;;1.17;0.40;;;12.80;26.90;;;;;;5037118;28;20037;-72
2021/10/04 06:28:00;;;;;;;0.90;0.73;;;12.80;32.70;;;;;;5037621;28;20499;-71
2021/10/04 06:30:26;;;;;;;0.63;0.50;;;12.80;39.90;;;;;;5036485;28;20041;-72
2021/10/04 06:32:52;;;;;;;1.02;0.50;;;12.80;17.40;;;;;;5036545;28;20052;-72
2021/10/04 06:35:18;;;;;;;3.20;0.73;;;12.90;33.60;;;;;;5036495;28;20397;-72
2021/10/04 06:37:44;;;;;;;1.65;0.80;;;12.90;48.80;;;;;;5036445;28;20556;-72
2021/10/04 06:40:12;;;;;;;3.53;0.65;;;12.90;23.50;;;;;;5036825;28;20562;-72
2021/10/04 06:42:38;;;;;;;0.90;0.73;;;13.00;16.40;;;;;;5036408;28;20053;-72
2021/10/04 06:45:06;;;;;;;0.95;0.57;;;13.00;7.30;;;;;;5036695;28;20072;-72
2021/10/04 06:47:32;;;;;;;3.00;0.50;;;13.00;12.40;;;;;;5036079;28;20045;-72
2021/10/04 06:49:57;;;;;;;2.08;0.70;;;13.00;5.80;;;;;;5036512;28;20350;-72
2021/10/04 06:52:23;;;;;;;3.17;0.70;;;13.10;2.50;;;;;;5018836;28;20072;-72
2021/10/04 06:54:50;;;;;;;2.10;0.90;;;13.10;1.00;;;;;;5036468;28;20076;-72
2021/10/04 06:57:16;;;;;;;3.22;0.68;;;13.10;1.00;;;;;;5036482;28;20056;-72
2021/10/04 06:59:41;;;;;;;2.30;0.93;;;13.10;1.00;;;;;;5036447;28;20404;-72
2021/10/04 07:02:08;;;;;;;3.40;0.60;;;13.10;1.00;;;;;;5036181;28;20044;-72
2021/10/04 07:04:34;;;;;;;2.65;0.50;;;13.00;14.70;;;;;;5036485;28;20037;-72
2021/10/04 07:06:59;;;;;;;3.05;0.73;;;13.10;1.00;;;;;;5018390;28;20037;-72
2021/10/04 07:09:25;;;;;;;2.65;0.70;;;13.10;1.00;;;;;;5036673;28;20048;-72
2021/10/04 07:11:51;;;;;;;3.30;0.70;;;13.20;1.00;;;;;;5036115;28;20042;-72
2021/10/04 07:14:17;;;;;;;4.93;0.70;;;13.10;1.00;;;;;;5035775;28;20041;-72
2021/10/04 07:16:43;;;;;;;2.17;0.68;;;13.20;1.00;;;;;;5036028;28;20124;-72
2021/10/04 07:19:09;;;;;;;2.58;0.82;;;13.20;1.00;;;;;;5036550;28;20069;-72
2021/10/04 07:21:35;;;;;;;3.70;0.50;;;13.20;1.00;;;;;;5036105;28;20043;-72
2021/10/04 07:24:00;;;;;;;2.22;1.00;;;13.20;1.00;;;;;;5035630;28;20049;-72
2021/10/04 07:26:27;;;;;;;3.50;0.95;;;13.20;1.00;;;;;;5035599;28;20037;-72
2021/10/04 07:28:53;;;;;;;3.90;1.13;;;13.20;1.00;;;;;;5035823;28;20038;-72
2021/10/04 07:31:19;;;;;;;1.80;0.70;;;13.20;1.00;;;;;;5035593;28;20049;-72
2021/10/04 07:33:46;;;;;;;3.08;0.90;;;13.30;1.00;;;;;;5033929;28;20051;-72
2021/10/04 07:36:12;;;;;;;3.97;0.90;;;13.20;1.00;;;;;;5033891;28;20067;-72
2021/10/04 07:38:38;;;;;;;2.72;0.80;;;13.20;1.00;;;;;;5033706;28;20135;-72
2021/10/04 07:41:06;;;;;;;2.80;1.02;;;13.20;1.00;;;;;;5033710;28;20041;-72
2021/10/04 07:43:32;;;;;;;1.50;0.82;;;13.20;4.50;;;;;;5034745;28;20095;-72
2021/10/04 07:45:58;;;;;;;1.25;0.50;;;13.10;1.00;;;;;;5033571;28;20072;-72
2021/10/04 07:48:25;;;;;;;1.40;0.70;;;13.10;1.00;;;;;;5034773;28;20037;-72
2021/10/04 07:50:51;;;;;;;3.70;0.85;;;13.10;1.00;;;;;;5035175;28;20496;-72
2021/10/04 07:53:17;;;;;;;5.80;2.78;;;13.10;1.00;;;;;;5035233;28;20053;-72
2021/10/04 07:55:43;;;;;;;2.60;1.00;;;13.20;1.00;;;;;;5034701;28;20037;-72
2021/10/04 07:58:11;;;;;;;2.80;0.90;;;13.20;1.00;;;;;;5034552;28;20041;-72
2021/10/04 08:00:37;;;;;;;1.67;0.65;;;13.20;1.00;;;;;;5034969;28;20040;-72
2021/10/04 08:03:03;;;;;;;1.90;0.80;;;13.20;1.00;;;;;;5035273;28;20124;-72
2021/10/04 08:05:29;;;;;;;4.63;1.00;;;13.30;1.00;;;;;;5035078;28;20071;-72
2021/10/04 08:07:55;;;;;;;2.97;1.08;;;13.30;1.00;;;;;;5035111;28;20068;-70
2021/10/04 08:10:22;;;;;;;2.92;1.42;;;13.20;1.00;;;;;;5034770;28;20389;-70
2021/10/04 08:12:47;;;;;;;2.45;0.88;;;13.30;1.00;;;;;;5034890;28;20131;-71
2021/10/04 08:15:13;;;;;;;2.45;1.00;;;13.30;1.00;;;;;;5033732;28;20133;-71
2021/10/04 08:17:40;;;;;;;4.15;1.08;;;13.30;1.00;;;;;;5032977;28;20037;-72
2021/10/04 08:20:10;;;;;;;3.78;1.35;;;13.30;1.00;;;;;;5034096;28;20029;-71
2021/10/04 08:22:40;;;;;;;3.17;0.90;;;13.20;1.00;;;;;;5032923;28;20107;-71
2021/10/04 08:25:08;;;;;;;6.38;1.30;;;13.30;1.00;;;;;;5047568;28;20136;-72
2021/10/04 08:27:34;;;;;;;3.63;1.10;;;13.30;1.00;;;;;;5053041;28;20045;-72
2021/10/04 08:30:00;;;;;;;4.07;1.23;;;13.30;1.00;;;;;;5052881;28;20038;-72
2021/10/04 08:32:26;;;;;;;3.83;1.00;;;13.20;1.00;;;;;;5052653;28;20070;-72
2021/10/04 08:34:52;;;;;;;4.88;1.00;;;13.20;1.00;;;;;;5052525;28;20154;-72
2021/10/04 08:37:18;;;;;;;3.75;1.10;;;13.20;1.00;;;;;;5052393;28;20037;-71
2021/10/04 08:39:43;;;;;;;1.85;0.90;;;13.20;1.00;;;;;;5052620;28;20049;-71
2021/10/04 08:42:10;;;;;;;3.40;1.30;;;13.20;1.00;;;;;;5052745;28;20403;-73
2021/10/04 08:44:36;;;;;;;3.95;1.38;;;13.30;1.00;;;;;;5053577;28;20048;-73
2021/10/04 08:47:06;;;;;;;2.00;1.20;;;13.30;1.00;;;;;;5054092;28;20045;-72
2021/10/04 08:49:33;;;;;;;2.75;1.10;;;13.30;1.00;;;;;;5054190;28;20041;-72
2021/10/04 08:52:00;;;;;;;2.60;1.20;;;13.30;1.00;;;;;;5054283;28;20404;-72
2021/10/04 08:54:29;;;;;;;3.92;1.52;;;13.30;1.00;;;;;;5054255;28;20065;-73
2021/10/04 08:56:56;;;;;;;2.65;1.23;;;13.30;1.00;;;;;;5054824;28;20080;-75
2021/10/04 08:59:22;;;;;;;4.22;1.17;;;13.30;1.00;;;;;;5054306;28;20066;-73
2021/10/04 09:01:48;;;;;;;4.70;1.33;;;13.30;1.00;;;;;;5053995;28;20029;-74
2021/10/04 09:04:19;;;;;;;2.60;1.30;;;13.30;1.00;;;;;;5054306;28;20045;-74
2021/10/04 09:06:45;;;;;;;3.60;1.33;;;13.30;1.00;;;;;;5054262;28;20037;-74
2021/10/04 09:09:15;;;;;;;3.60;1.13;;;13.40;1.00;;;;;;5054239;28;20427;-74
2021/10/04 09:11:44;;;;;;;3.85;1.33;;;13.40;1.00;;;;;;5058708;28;20094;-74
2021/10/04 09:14:12;;;;;;;4.28;1.38;;;13.40;1.00;;;;;;5057728;28;20037;-74
2021/10/04 09:17:11;;;;;;;4.57;1.33;;;13.40;1.00;;;;;;5057548;28;20113;-74
2021/10/04 09:19:42;;;;;;;9.70;1.40;;;13.50;1.00;;;;;;5055895;28;20071;-74
2021/10/04 09:22:15;;;;;;;4.18;1.27;;;13.60;1.00;;;;;;5058134;28;20033;-69
2021/10/04 09:25:03;;;;;;;6.45;1.23;;;13.60;1.00;;;;;;5059415;28;20067;-72
2021/10/04 09:27:44;;;;;;;3.67;1.10;;;13.70;1.00;;;;;;5058088;28;20125;-71
2021/10/04 09:30:21;;;;;;;5.38;1.38;;;13.80;1.00;;;;;;5058102;28;20047;-71
2021/10/04 09:32:50;;;;;;;4.07;1.42;;;13.90;1.00;;;;;;5057827;28;20086;-70
2021/10/04 09:35:24;;;;;;;5.15;1.20;;;13.90;1.00;;;;;;5057596;28;20049;-71
2021/10/04 09:38:16;;;;;;;5.80;1.40;;;14.00;1.00;;;;;;5057138;28;20045;-71
2021/10/04 09:40:44;;;;;;;4.25;1.45;;;14.10;1.00;;;;;;5047240;28;20040;-71
2021/10/04 09:43:23;;;;;;;4.75;1.50;;;14.20;1.00;;;;;;5057114;28;20044;-71
2021/10/04 09:45:59;;;;;;;3.70;1.48;;;14.10;1.00;;;;;;5057192;28;20043;-71
2021/10/04 09:48:25;;;;;;;7.32;1.80;;;14.10;1.00;;;;;;5057499;28;20048;-71
2021/10/04 09:50:50;;;;;;;6.47;1.50;;;14.10;1.00;;;;;;5057137;28;20488;-71
2021/10/04 09:53:16;;;;;;;3.53;1.20;;;14.30;1.00;;;;;;5056864;28;20041;-71
2021/10/04 09:55:47;;;;;;;5.28;1.60;;;14.30;1.00;;;;;;5057229;28;20032;-71
2021/10/04 09:58:21;;;;;;;3.65;1.52;;;14.40;1.00;;;;;;5057337;28;20044;-70
2021/10/04 10:00:57;;;;;;;6.00;1.50;;;14.50;1.00;;;;;;5056948;28;20033;-71
2021/10/04 10:03:38;;;;;;;6.13;1.60;;;14.60;1.00;;;;;;5057225;28;20044;-71
2021/10/04 10:06:04;;;;;;;4.68;1.42;;;14.80;1.00;;;;;;5056699;28;20116;-71
2021/10/04 10:08:31;;;;;;;6.63;1.40;;;14.80;1.00;;;;;;5057068;28;20047;-71
2021/10/04 10:11:00;;;;;;;4.90;1.30;;;14.90;1.00;;;;;;5039001;28;20167;-71
2021/10/04 10:13:28;;;;;;;8.48;1.63;;;15.00;1.00;;;;;;5056951;28;20059;-71
2021/10/04 10:16:06;;;;;;;4.80;1.30;;;15.00;1.00;;;;;;5056626;28;20114;-71
2021/10/04 10:18:49;;;;;;;8.52;1.98;;;15.10;1.00;;;;;;5039471;28;20037;-71
2021/10/04 10:21:23;;;;;;;5.00;1.40;;;15.10;1.00;;;;;;5055813;28;20045;-71
2021/10/04 10:23:59;;;;;;;4.35;1.15;;;15.30;1.00;;;;;;5056533;28;20051;-72
2021/10/04 10:26:37;;;;;;;4.05;1.13;;;15.30;1.00;;;;;;5056728;28;20250;-71
2021/10/04 10:29:08;;;;;;;6.22;1.40;;;15.30;1.00;;;;;;5056940;28;20036;-71
2021/10/04 10:31:53;;;;;;;6.93;1.48;;;15.30;1.00;;;;;;5056121;28;20033;-71
2021/10/04 10:34:35;;;;;;;4.03;1.02;;;15.30;1.00;;;;;;5038984;28;20041;-71
2021/10/04 10:37:09;;;;;;;3.65;1.13;;;15.30;1.00;;;;;;5055900;28;20576;-71
2021/10/04 10:39:43;;;;;;;3.72;1.08;;;15.30;1.00;;;;;;5056125;28;20064;-71
2021/10/04 10:42:14;;;;;;;3.83;1.30;;;15.40;1.00;;;;;;5057566;28;20033;-71
2021/10/04 10:44:59;;;;;;;4.30;1.48;;;15.40;1.00;;;;;;5056646;28;20051;-73
2021/10/04 10:47:36;;;;;;;3.70;1.23;;;15.40;1.00;;;;;;5056164;28;20036;-71
2021/10/04 10:50:24;;;;;;;3.17;1.30;;;15.40;1.00;;;;;;5056233;28;20033;-71
2021/10/04 10:52:58;;;;;;;3.97;1.13;;;15.60;1.00;;;;;;5055796;28;20039;-71
2021/10/04 10:55:24;;;;;;;3.63;1.13;;;15.60;1.00;;;;;;5056147;28;20542;-71
2021/10/04 11:00:44;;;;;;;5.53;1.10;;;15.50;1.00;;;;;;5056136;28;20037;-71
2021/10/04 11:03:18;;;;;;;9.85;1.45;;;15.60;1.00;;;;;;5055986;28;20124;-71
2021/10/04 11:05:44;;;;;;;3.65;1.00;;;15.70;1.00;;;;;;5055882;28;20040;-71
2021/10/04 11:08:16;;;;;;;4.00;0.90;;;15.60;1.00;;;;;;5038859;28;20033;-71
2021/10/04 11:10:53;;;;;;;3.20;1.05;;;15.70;1.00;;;;;;5056139;28;20041;-71
2021/10/04 11:13:19;;;;;;;4.13;0.95;;;15.70;1.00;;;;;;5055923;28;20504;-71
2021/10/04 11:15:45;;;;;;;5.45;1.08;;;15.70;1.00;;;;;;5055512;28;20041;-71
2021/10/04 11:18:11;;;;;;;3.75;1.00;;;15.70;1.00;;;;;;5056340;28;20033;-71
2021/10/04 11:20:37;;;;;;;5.75;1.30;;;15.80;1.00;;;;;;5055668;28;20044;-71
2021/10/04 11:23:19;;;;;;;3.15;1.48;;;15.90;1.00;;;;;;5055840;28;20047;-71
2021/10/04 11:25:47;;;;;;;3.35;1.50;;;15.80;1.00;;;;;;5055668;28;20041;-71
2021/10/04 11:28:15;;;;;;;9.10;1.20;;;15.90;1.00;;;;;;5055554;28;20047;-72
2021/10/04 11:31:03;;;;;;;4.30;1.13;;;15.90;1.00;;;;;;5055654;28;20044;-71
2021/10/04 11:33:32;;;;;;;5.50;1.30;;;15.90;1.00;;;;;;5055037;28;20037;-71
2021/10/04 11:36:04;;;;;;;3.13;0.98;;;16.00;1.00;;;;;;5055359;28;20499;-71
2021/10/04 11:38:33;;;;;;;4.15;0.98;;;16.00;1.00;;;;;;5055764;28;20048;-71
2021/10/04 11:40:58;;;;;;;6.22;2.20;;;16.10;1.00;;;;;;5055271;28;20053;-71
2021/10/04 11:43:24;;;;;;;4.43;2.10;;;16.10;1.00;;;;;;5054929;28;20041;-71
2021/10/04 11:45:51;;;;;;;2.60;1.30;;;16.20;1.00;;;;;;5055009;28;20072;-71
2021/10/04 11:48:32;;;;;;;3.63;2.20;;;16.20;1.00;;;;;;5054842;28;20431;-71
2021/10/04 11:50:59;;;;;;;5.82;1.30;;;16.20;1.00;;;;;;5055145;28;20044;-71
2021/10/04 11:53:28;;;;;;;2.55;1.25;;;16.20;1.00;;;;;;5054974;28;20506;-71
2021/10/04 11:56:03;;;;;;;4.55;1.00;;;16.30;1.00;;;;;;5054736;28;20492;-71
2021/10/04 11:58:30;;;;;;;6.90;2.28;;;16.40;1.00;;;;;;5055006;28;20072;-71
2021/10/04 12:00:56;;;;;;;5.63;1.60;;;16.50;1.00;;;;;;5054732;28;20037;-71
2021/10/04 12:03:33;;;;;;;5.05;2.30;;;16.60;1.00;;;;;;5054914;28;20369;-71
2021/10/04 12:06:00;;;;;;;6.03;2.90;;;16.60;1.00;;;;;;5054568;28;20040;-71
2021/10/04 12:08:38;;;;;;;2.72;1.30;;;16.70;1.00;;;;;;5054970;28;20037;-71
2021/10/04 12:11:07;;;;;;;4.57;2.17;;;16.90;1.00;;;;;;5036948;28;20427;-71
2021/10/04 12:13:40;;;;;;;7.90;4.93;;;17.00;1.00;;;;;;5054951;28;20041;-71
2021/10/04 12:16:15;;;;;;;5.32;1.75;;;16.80;1.00;;;;;;5054591;28;20128;-71
2021/10/04 12:18:43;;;;;;;10.48;5.93;;;17.00;1.00;;;;;;5054837;28;20057;-71
2021/10/04 12:21:20;;;;;;;8.20;3.47;;;17.40;1.00;;;;;;5054619;28;20500;-71
2021/10/04 12:24:05;;;;;;;5.95;1.52;;;17.40;1.00;;;;;;5054769;28;20036;-72
2021/10/04 12:26:31;;;;;;;2.55;1.00;;;17.50;1.00;;;;;;5054570;28;20045;-71
2021/10/04 12:28:57;;;;;;;3.65;1.15;;;17.70;1.00;;;;;;5054785;28;20041;-72
2021/10/04 12:31:49;;;;;;;5.63;1.50;;;17.70;1.00;;;;;;5054023;28;20120;-72
2021/10/04 12:34:22;;;;;;;4.22;2.42;;;17.70;1.00;;;;;;5050830;28;20057;-71
2021/10/04 12:36:48;;;;;;;3.85;2.15;;;17.50;1.00;;;;;;5054110;28;20128;-72
2021/10/04 12:39:14;;;;;;;7.00;2.40;;;17.60;1.00;;;;;;5014337;28;20505;-72
2021/10/04 12:41:48;;;;;;;2.63;1.00;;;17.60;1.00;;;;;;5014428;28;20032;-72
2021/10/04 12:44:20;;;;;;;4.18;1.00;;;17.60;1.00;;;;;;5014413;28;20045;-72
2021/10/04 12:47:02;;;;;;;4.45;1.25;;;17.50;1.00;;;;;;5014437;28;20509;-71
2021/10/04 12:49:29;;;;;;;3.88;1.98;;;17.40;1.00;;;;;;5015104;28;20052;-72
2021/10/04 12:51:55;;;;;;;4.35;1.60;;;17.40;1.00;;;;;;5014341;28;20046;-72
2021/10/04 12:54:29;;;;;;;3.75;1.25;;;17.20;1.00;;;;;;5014193;28;20050;-72
2021/10/04 12:56:55;;;;;;;3.83;0.98;;;17.20;1.00;;;;;;4997470;28;20042;-72
2021/10/04 12:59:26;;;;;;;7.47;2.40;;;17.30;1.00;;;;;;5014839;28;20092;-72
2021/10/04 13:01:55;;;;;;;4.72;2.10;;;17.50;1.00;;;;;;5013777;28;20034;-72
2021/10/04 13:04:35;;;;;;;6.07;3.58;;;17.40;1.00;;;;;;5014441;28;20050;-72
2021/10/04 13:07:05;;;;;;;8.77;2.33;;;17.20;1.00;;;;;;5014699;28;20038;-72
2021/10/04 13:09:32;;;;;;;5.53;2.10;;;17.00;1.00;;;;;;5014153;28;20038;-72
2021/10/04 13:11:58;;;;;;;6.40;1.30;;;16.80;1.00;;;;;;5014440;28;20126;-72
2021/10/04 13:14:24;;;;;;;5.55;1.30;;;16.60;1.00;;;;;;5014529;28;20148;-72
2021/10/04 13:16:52;;;;;;;1.90;0.85;;;16.50;1.00;;;;;;5013933;28;20092;-72
2021/10/04 13:19:21;;;;;;;2.58;0.80;;;16.40;1.00;;;;;;4997005;28;20486;-71
2021/10/04 13:21:47;;;;;;;14.00;10.50;;;16.30;1.00;;;;;;5014257;28;20038;-72
2021/10/04 13:24:13;;;;;;;4.88;3.03;;;16.20;1.00;;;;;;5014193;28;20052;-72
2021/10/04 13:26:40;;;;;;;5.65;1.98;;;16.20;1.00;;;;;;5014224;28;20092;-72
2021/10/04 13:29:06;;;;;;;4.78;1.58;;;16.10;1.00;;;;;;5013695;28;20044;-71
2021/10/04 13:31:32;;;;;;;9.25;5.18;;;16.00;1.00;;;;;;4996453;28;20069;-71
2021/10/04 13:33:58;;;;;;;19.15;13.10;;;15.80;1.00;;;;;;5014203;28;20156;-71
2021/10/04 13:36:24;;;;;;;8.57;6.00;;;15.70;1.00;;;;;;5014167;28;20069;-71